Southeast Iowa Regional Airport
KBRL : now visible

Airfield :











YOU CAN JOIN US ON...

 
LOGIN :

Register | Disclaimer

   EN    FR    IT 

 









Legend :    VFR   Marginal VFR   IFR   Intensive IFR   Very Intensive IFR
Visi :
Ceiling :
>= 8 km
>= 3000ft
5 to 8 km
1000 to 3000 ft
1500m to 5 km
500 to 1000 ft
800 to 1500m
200 to 500 ft
< 800m
< 200 ft
Symbols :   Thunderstorms  Fog  Heavy snow  Heavy precipitations  Wind > 20 kt






- Airport Elevation : 698 ft
- IATA code : BRL


KBRL - Southeast Iowa Regional

CURRENT METAR :
  • 181253Z AUTO 35004KT 9SM -RA FEW060 BKN080 10/08 A3008 RMK AO2 RAE19B47 SLP186 P0001 T01000083

EXPIRED METARs :
  • 181153Z AUTO 05006KT 10SM -RA FEW080 BKN100 OVC120 11/08 A3002 RMK AO2 RAE1057B35 SLP167 P0000 60001 70001 T01060083 10111 20083 51018
  • 181053Z AUTO 04005KT 10SM -RA FEW045 BKN080 OVC120 11/08 A3001 RMK AO2 RAB0955 SLP162 P0001 T01060083
  • 181000Z AUTO 10SM -RA FEW070 OVC090 11/09 A3002 RMK AO2 RAB0955 P0000 T01110089
  • 180853Z AUTO 05007KT 10SM BKN110 11/08 A2997 RMK AO2 SLP148 T01110083 57010

TAF KBRL
Valid from the 18 at 12:00 until the 19 at 12:00 UTC


181120Z 1812/1912 05007KT P6SM -SHRA BKN040 OVC080
FM181400 05007KT 4SM -SHRA OVC025
TEMPO 1814/1816 2SM -TSRA OVC015CB
FM181600 05010KT P6SM BKN015 OVC025
FM181900 02015G25KT 4SM -SHRA BR BKN007 OVC015
TEMPO 1820/1823 2SM -TSRA BR OVC015CB
FM190200 34011KT P6SM SCT030
KZAU FIR / North America



MET'MAP, your aeronautical weather chart ! - Copyright ORBIFLY December 2007 - Disclaimer

ORBIFLY MET'MAP TEAM :

Programming & Development : Alexandra Zaïnal
Original concept : Baudouin d'Aumeries
Technical & hardware support : Manuel Goepfert
Assistance : Marc-Olivier Méhu




SOURCES & CREDITS :

   NOAA       Earth
Advisory